sensor_id;sensor_type;location;lat;lon;timestamp;temperature;humidity
13610;DHT22;6876;50.788;4.940;2022-07-23T00:01:08;17.10;99.90
13610;DHT22;6876;50.788;4.940;2022-07-23T00:03:56;17.10;99.90
13610;DHT22;6876;50.788;4.940;2022-07-23T00:06:43;17.10;99.90
13610;DHT22;6876;50.788;4.940;2022-07-23T00:09:30;17.10;99.90
13610;DHT22;6876;50.788;4.940;2022-07-23T00:12:19;17.10;99.90
13610;DHT22;6876;50.788;4.940;2022-07-23T00:15:08;17.10;99.90
13610;DHT22;6876;50.788;4.940;2022-07-23T00:17:55;16.80;99.90
13610;DHT22;6876;50.788;4.940;2022-07-23T00:20:42;16.70;99.90
13610;DHT22;6876;50.788;4.940;2022-07-23T00:23:30;16.70;99.90
13610;DHT22;6876;50.788;4.940;2022-07-23T00:26:17;16.70;99.90
13610;DHT22;6876;50.788;4.940;2022-07-23T00:29:06;16.60;99.90
13610;DHT22;6876;50.788;4.940;2022-07-23T00:31:53;16.60;99.90
13610;DHT22;6876;50.788;4.940;2022-07-23T00:34:41;16.60;99.90
13610;DHT22;6876;50.788;4.940;2022-07-23T00:37:28;16.50;99.90
13610;DHT22;6876;50.788;4.940;2022-07-23T00:40:15;16.50;99.90
13610;DHT22;6876;50.788;4.940;2022-07-23T00:43:03;16.40;99.90
13610;DHT22;6876;50.788;4.940;2022-07-23T00:45:52;16.40;99.90
13610;DHT22;6876;50.788;4.940;2022-07-23T00:48:39;16.30;99.90
13610;DHT22;6876;50.788;4.940;2022-07-23T00:51:26;16.30;99.90
13610;DHT22;6876;50.788;4.940;2022-07-23T00:54:14;16.30;99.90
13610;DHT22;6876;50.788;4.940;2022-07-23T00:57:01;16.30;99.90
13610;DHT22;6876;50.788;4.940;2022-07-23T00:59:48;16.40;99.90
13610;DHT22;6876;50.788;4.940;2022-07-23T01:02:37;16.40;99.90
13610;DHT22;6876;50.788;4.940;2022-07-23T01:05:25;16.30;99.90
13610;DHT22;6876;50.788;4.940;2022-07-23T01:08:12;16.40;99.90
13610;DHT22;6876;50.788;4.940;2022-07-23T01:11:00;16.40;99.90
13610;DHT22;6876;50.788;4.940;2022-07-23T01:13:47;16.40;99.90
13610;DHT22;6876;50.788;4.940;2022-07-23T01:16:35;16.40;99.90
13610;DHT22;6876;50.788;4.940;2022-07-23T01:19:23;16.40;99.90
13610;DHT22;6876;50.788;4.940;2022-07-23T01:22:11;16.50;99.90
13610;DHT22;6876;50.788;4.940;2022-07-23T01:24:59;16.50;99.90
13610;DHT22;6876;50.788;4.940;2022-07-23T01:27:47;16.50;99.90
13610;DHT22;6876;50.788;4.940;2022-07-23T01:30:35;16.40;99.90
13610;DHT22;6876;50.788;4.940;2022-07-23T01:33:22;16.50;99.90
13610;DHT22;6876;50.788;4.940;2022-07-23T01:36:09;16.40;99.90
13610;DHT22;6876;50.788;4.940;2022-07-23T01:38:57;16.40;99.90
13610;DHT22;6876;50.788;4.940;2022-07-23T01:41:45;16.40;99.90
13610;DHT22;6876;50.788;4.940;2022-07-23T01:44:32;16.40;99.90
13610;DHT22;6876;50.788;4.940;2022-07-23T01:47:20;16.30;99.90
13610;DHT22;6876;50.788;4.940;2022-07-23T01:50:08;16.30;99.90
13610;DHT22;6876;50.788;4.940;2022-07-23T01:52:55;16.30;99.90
13610;DHT22;6876;50.788;4.940;2022-07-23T01:55:42;16.30;99.90
13610;DHT22;6876;50.788;4.940;2022-07-23T01:58:31;16.30;99.90
13610;DHT22;6876;50.788;4.940;2022-07-23T02:01:19;16.20;99.90
13610;DHT22;6876;50.788;4.940;2022-07-23T02:04:06;16.20;99.90
13610;DHT22;6876;50.788;4.940;2022-07-23T02:06:53;16.30;99.90
13610;DHT22;6876;50.788;4.940;2022-07-23T02:09:40;16.20;99.90
13610;DHT22;6876;50.788;4.940;2022-07-23T02:12:28;16.20;99.90
13610;DHT22;6876;50.788;4.940;2022-07-23T02:15:16;16.20;99.90
13610;DHT22;6876;50.788;4.940;2022-07-23T02:18:04;16.20;99.90
13610;DHT22;6876;50.788;4.940;2022-07-23T02:20:51;16.10;99.90
13610;DHT22;6876;50.788;4.940;2022-07-23T02:23:38;16.00;99.90
13610;DHT22;6876;50.788;4.940;2022-07-23T02:26:26;16.10;99.90
13610;DHT22;6876;50.788;4.940;2022-07-23T02:29:13;16.10;99.90
13610;DHT22;6876;50.788;4.940;2022-07-23T02:32:02;16.10;99.90
13610;DHT22;6876;50.788;4.940;2022-07-23T02:34:49;16.10;99.90
13610;DHT22;6876;50.788;4.940;2022-07-23T02:37:36;16.10;99.90
13610;DHT22;6876;50.788;4.940;2022-07-23T02:40:24;16.00;99.90
13610;DHT22;6876;50.788;4.940;2022-07-23T02:43:11;16.10;99.90
13610;DHT22;6876;50.788;4.940;2022-07-23T02:45:58;16.00;99.90
13610;DHT22;6876;50.788;4.940;2022-07-23T02:48:48;15.90;99.90
13610;DHT22;6876;50.788;4.940;2022-07-23T02:51:35;15.80;99.90
13610;DHT22;6876;50.788;4.940;2022-07-23T02:54:22;15.70;99.90
13610;DHT22;6876;50.788;4.940;2022-07-23T02:57:09;15.60;99.90
13610;DHT22;6876;50.788;4.940;2022-07-23T02:59:57;15.60;99.90
13610;DHT22;6876;50.788;4.940;2022-07-23T03:02:44;15.50;99.90
13610;DHT22;6876;50.788;4.940;2022-07-23T03:05:32;15.50;99.90
13610;DHT22;6876;50.788;4.940;2022-07-23T03:08:20;15.50;99.90
13610;DHT22;6876;50.788;4.940;2022-07-23T03:11:07;15.50;99.90
13610;DHT22;6876;50.788;4.940;2022-07-23T03:13:56;15.50;99.90
13610;DHT22;6876;50.788;4.940;2022-07-23T03:16:44;15.50;99.90
13610;DHT22;6876;50.788;4.940;2022-07-23T03:19:31;15.50;99.90
13610;DHT22;6876;50.788;4.940;2022-07-23T03:22:20;15.50;99.90
13610;DHT22;6876;50.788;4.940;2022-07-23T03:25:08;15.40;99.90
13610;DHT22;6876;50.788;4.940;2022-07-23T03:27:56;15.20;99.90
13610;DHT22;6876;50.788;4.940;2022-07-23T03:30:43;15.10;99.90
13610;DHT22;6876;50.788;4.940;2022-07-23T03:33:32;15.20;99.90
13610;DHT22;6876;50.788;4.940;2022-07-23T03:36:19;15.20;99.90
13610;DHT22;6876;50.788;4.940;2022-07-23T03:39:08;15.10;99.90
13610;DHT22;6876;50.788;4.940;2022-07-23T03:41:55;15.10;99.90
13610;DHT22;6876;50.788;4.940;2022-07-23T03:44:42;15.00;99.90
13610;DHT22;6876;50.788;4.940;2022-07-23T03:47:29;14.90;99.90
13610;DHT22;6876;50.788;4.940;2022-07-23T03:50:17;14.80;99.90
13610;DHT22;6876;50.788;4.940;2022-07-23T03:53:04;14.70;99.90
13610;DHT22;6876;50.788;4.940;2022-07-23T03:55:52;14.80;99.90
13610;DHT22;6876;50.788;4.940;2022-07-23T03:58:40;14.90;99.90
13610;DHT22;6876;50.788;4.940;2022-07-23T04:01:27;15.00;99.90
13610;DHT22;6876;50.788;4.940;2022-07-23T04:04:14;15.00;99.90
13610;DHT22;6876;50.788;4.940;2022-07-23T04:07:01;15.00;99.90
13610;DHT22;6876;50.788;4.940;2022-07-23T04:09:49;15.10;99.90
13610;DHT22;6876;50.788;4.940;2022-07-23T04:12:37;15.10;99.90
13610;DHT22;6876;50.788;4.940;2022-07-23T04:15:25;15.10;99.90
13610;DHT22;6876;50.788;4.940;2022-07-23T04:18:12;15.20;99.90
13610;DHT22;6876;50.788;4.940;2022-07-23T04:20:59;15.20;99.90
13610;DHT22;6876;50.788;4.940;2022-07-23T04:23:47;15.20;99.90
13610;DHT22;6876;50.788;4.940;2022-07-23T04:26:34;15.30;99.90
13610;DHT22;6876;50.788;4.940;2022-07-23T04:29:22;15.40;99.90
13610;DHT22;6876;50.788;4.940;2022-07-23T04:32:10;15.40;99.90
13610;DHT22;6876;50.788;4.940;2022-07-23T04:34:57;15.40;99.90
13610;DHT22;6876;50.788;4.940;2022-07-23T04:37:44;15.40;99.90
13610;DHT22;6876;50.788;4.940;2022-07-23T04:40:32;15.40;99.90
13610;DHT22;6876;50.788;4.940;2022-07-23T04:43:19;15.40;99.90
13610;DHT22;6876;50.788;4.940;2022-07-23T04:46:08;15.70;99.90
13610;DHT22;6876;50.788;4.940;2022-07-23T04:48:56;16.30;99.90
13610;DHT22;6876;50.788;4.940;2022-07-23T04:51:43;16.90;99.90
13610;DHT22;6876;50.788;4.940;2022-07-23T04:54:30;17.30;99.90
13610;DHT22;6876;50.788;4.940;2022-07-23T04:57:18;17.70;99.90
13610;DHT22;6876;50.788;4.940;2022-07-23T05:00:06;18.00;99.90
13610;DHT22;6876;50.788;4.940;2022-07-23T05:02:55;18.20;99.90
13610;DHT22;6876;50.788;4.940;2022-07-23T05:05:43;18.40;99.90
13610;DHT22;6876;50.788;4.940;2022-07-23T05:08:30;18.60;99.90
13610;DHT22;6876;50.788;4.940;2022-07-23T05:11:17;18.90;99.90
13610;DHT22;6876;50.788;4.940;2022-07-23T05:14:04;19.10;99.90
13610;DHT22;6876;50.788;4.940;2022-07-23T05:16:52;19.40;99.90
13610;DHT22;6876;50.788;4.940;2022-07-23T05:19:41;19.60;99.90
13610;DHT22;6876;50.788;4.940;2022-07-23T05:22:28;19.90;99.90
13610;DHT22;6876;50.788;4.940;2022-07-23T05:25:15;19.80;99.90
13610;DHT22;6876;50.788;4.940;2022-07-23T05:28:10;19.20;99.90
13610;DHT22;6876;50.788;4.940;2022-07-23T05:31:05;19.30;99.90
13610;DHT22;6876;50.788;4.940;2022-07-23T05:33:52;19.80;99.90
13610;DHT22;6876;50.788;4.940;2022-07-23T05:36:41;20.40;99.90
13610;DHT22;6876;50.788;4.940;2022-07-23T05:39:28;20.80;99.90
13610;DHT22;6876;50.788;4.940;2022-07-23T05:42:16;21.30;99.90
13610;DHT22;6876;50.788;4.940;2022-07-23T05:45:05;21.70;99.90
13610;DHT22;6876;50.788;4.940;2022-07-23T05:47:52;22.10;99.90
13610;DHT22;6876;50.788;4.940;2022-07-23T05:50:40;22.50;99.90
13610;DHT22;6876;50.788;4.940;2022-07-23T05:53:28;22.90;99.90
13610;DHT22;6876;50.788;4.940;2022-07-23T05:56:16;22.90;99.90
13610;DHT22;6876;50.788;4.940;2022-07-23T05:59:04;22.70;99.90
13610;DHT22;6876;50.788;4.940;2022-07-23T06:01:51;22.90;99.90
13610;DHT22;6876;50.788;4.940;2022-07-23T06:04:39;23.60;99.90
13610;DHT22;6876;50.788;4.940;2022-07-23T06:07:26;24.30;99.90
13610;DHT22;6876;50.788;4.940;2022-07-23T06:10:15;24.50;99.90
13610;DHT22;6876;50.788;4.940;2022-07-23T06:13:02;24.50;99.90
13610;DHT22;6876;50.788;4.940;2022-07-23T06:15:49;23.80;99.90
13610;DHT22;6876;50.788;4.940;2022-07-23T06:18:36;22.70;99.90
13610;DHT22;6876;50.788;4.940;2022-07-23T06:21:24;22.50;99.90
13610;DHT22;6876;50.788;4.940;2022-07-23T06:24:11;22.10;99.90
13610;DHT22;6876;50.788;4.940;2022-07-23T06:26:59;22.00;99.90
13610;DHT22;6876;50.788;4.940;2022-07-23T06:29:47;21.90;99.90
13610;DHT22;6876;50.788;4.940;2022-07-23T06:32:34;22.00;99.90
13610;DHT22;6876;50.788;4.940;2022-07-23T06:35:21;22.20;99.90
13610;DHT22;6876;50.788;4.940;2022-07-23T06:38:09;22.30;99.90
13610;DHT22;6876;50.788;4.940;2022-07-23T06:40:56;22.50;99.90
13610;DHT22;6876;50.788;4.940;2022-07-23T06:43:45;22.90;99.90
13610;DHT22;6876;50.788;4.940;2022-07-23T06:46:32;24.10;99.90
13610;DHT22;6876;50.788;4.940;2022-07-23T06:49:19;25.40;99.90
13610;DHT22;6876;50.788;4.940;2022-07-23T06:52:07;26.30;99.90
13610;DHT22;6876;50.788;4.940;2022-07-23T06:54:54;26.60;99.90
13610;DHT22;6876;50.788;4.940;2022-07-23T06:57:41;26.90;99.90
13610;DHT22;6876;50.788;4.940;2022-07-23T07:00:30;26.10;99.90
13610;DHT22;6876;50.788;4.940;2022-07-23T07:03:18;26.90;99.90
13610;DHT22;6876;50.788;4.940;2022-07-23T07:06:05;27.30;99.90
13610;DHT22;6876;50.788;4.940;2022-07-23T07:08:53;27.40;99.90
13610;DHT22;6876;50.788;4.940;2022-07-23T07:11:41;27.40;99.90
13610;DHT22;6876;50.788;4.940;2022-07-23T07:14:29;27.90;99.90
13610;DHT22;6876;50.788;4.940;2022-07-23T07:17:17;28.40;99.90
13610;DHT22;6876;50.788;4.940;2022-07-23T07:20:05;28.40;99.90
13610;DHT22;6876;50.788;4.940;2022-07-23T07:22:53;28.60;99.90
13610;DHT22;6876;50.788;4.940;2022-07-23T07:25:40;28.70;99.90
13610;DHT22;6876;50.788;4.940;2022-07-23T07:28:28;28.80;99.90
13610;DHT22;6876;50.788;4.940;2022-07-23T07:31:15;29.20;99.90
13610;DHT22;6876;50.788;4.940;2022-07-23T07:34:04;29.20;99.90
13610;DHT22;6876;50.788;4.940;2022-07-23T07:36:51;29.20;99.90
13610;DHT22;6876;50.788;4.940;2022-07-23T07:39:38;28.80;99.90
13610;DHT22;6876;50.788;4.940;2022-07-23T07:42:25;28.80;99.90
13610;DHT22;6876;50.788;4.940;2022-07-23T07:45:13;29.00;99.90
13610;DHT22;6876;50.788;4.940;2022-07-23T07:48:01;29.60;99.90
13610;DHT22;6876;50.788;4.940;2022-07-23T07:50:49;29.90;99.90
13610;DHT22;6876;50.788;4.940;2022-07-23T07:53:36;29.40;99.90
13610;DHT22;6876;50.788;4.940;2022-07-23T07:56:24;29.40;99.90
13610;DHT22;6876;50.788;4.940;2022-07-23T07:59:11;29.40;99.90
13610;DHT22;6876;50.788;4.940;2022-07-23T08:02:00;29.10;99.90
13610;DHT22;6876;50.788;4.940;2022-07-23T08:04:47;29.30;99.90
13610;DHT22;6876;50.788;4.940;2022-07-23T08:07:36;29.30;99.90
13610;DHT22;6876;50.788;4.940;2022-07-23T08:10:26;29.40;99.90
13610;DHT22;6876;50.788;4.940;2022-07-23T08:13:14;29.90;99.90
13610;DHT22;6876;50.788;4.940;2022-07-23T08:16:01;30.20;99.90
13610;DHT22;6876;50.788;4.940;2022-07-23T08:18:49;30.40;99.90
13610;DHT22;6876;50.788;4.940;2022-07-23T08:21:36;30.50;99.90
13610;DHT22;6876;50.788;4.940;2022-07-23T08:24:25;30.40;99.90
13610;DHT22;6876;50.788;4.940;2022-07-23T08:27:12;31.00;99.90
13610;DHT22;6876;50.788;4.940;2022-07-23T08:29:59;31.50;99.90
13610;DHT22;6876;50.788;4.940;2022-07-23T08:32:55;31.70;99.90
13610;DHT22;6876;50.788;4.940;2022-07-23T08:35:43;32.10;99.90
13610;DHT22;6876;50.788;4.940;2022-07-23T08:38:37;33.20;99.20
13610;DHT22;6876;50.788;4.940;2022-07-23T08:41:38;32.40;97.50
13610;DHT22;6876;50.788;4.940;2022-07-23T08:44:29;31.60;97.60
13610;DHT22;6876;50.788;4.940;2022-07-23T08:47:17;30.40;99.60
13610;DHT22;6876;50.788;4.940;2022-07-23T08:50:05;31.10;99.30
13610;DHT22;6876;50.788;4.940;2022-07-23T08:52:54;30.90;99.10
13610;DHT22;6876;50.788;4.940;2022-07-23T08:55:43;31.90;99.00
13610;DHT22;6876;50.788;4.940;2022-07-23T08:58:32;32.70;97.80
13610;DHT22;6876;50.788;4.940;2022-07-23T09:01:19;33.30;95.60
13610;DHT22;6876;50.788;4.940;2022-07-23T09:04:07;32.90;95.60
13610;DHT22;6876;50.788;4.940;2022-07-23T09:06:54;33.00;95.20
13610;DHT22;6876;50.788;4.940;2022-07-23T09:09:42;33.30;94.90
13610;DHT22;6876;50.788;4.940;2022-07-23T09:12:29;33.10;94.70
13610;DHT22;6876;50.788;4.940;2022-07-23T09:15:18;33.00;94.40
13610;DHT22;6876;50.788;4.940;2022-07-23T09:18:05;33.10;94.30
13610;DHT22;6876;50.788;4.940;2022-07-23T09:21:05;32.30;94.00
13610;DHT22;6876;50.788;4.940;2022-07-23T09:23:57;32.30;93.90
13610;DHT22;6876;50.788;4.940;2022-07-23T09:26:45;33.00;93.70
13610;DHT22;6876;50.788;4.940;2022-07-23T09:29:32;32.80;93.00
13610;DHT22;6876;50.788;4.940;2022-07-23T09:32:21;33.30;92.60
13610;DHT22;6876;50.788;4.940;2022-07-23T09:35:08;33.60;91.30
13610;DHT22;6876;50.788;4.940;2022-07-23T09:38:01;32.70;92.20
13610;DHT22;6876;50.788;4.940;2022-07-23T09:41:05;33.10;92.50
13610;DHT22;6876;50.788;4.940;2022-07-23T09:43:55;33.90;93.40
13610;DHT22;6876;50.788;4.940;2022-07-23T09:46:45;33.70;92.60
13610;DHT22;6876;50.788;4.940;2022-07-23T09:49:34;34.00;91.70
13610;DHT22;6876;50.788;4.940;2022-07-23T09:52:26;34.00;91.50
13610;DHT22;6876;50.788;4.940;2022-07-23T09:55:15;33.70;91.10
13610;DHT22;6876;50.788;4.940;2022-07-23T09:58:02;33.90;90.70
13610;DHT22;6876;50.788;4.940;2022-07-23T10:00:50;32.70;91.70
13610;DHT22;6876;50.788;4.940;2022-07-23T10:03:37;33.20;90.60
13610;DHT22;6876;50.788;4.940;2022-07-23T10:06:26;33.00;91.10
13610;DHT22;6876;50.788;4.940;2022-07-23T10:09:16;33.20;90.90
13610;DHT22;6876;50.788;4.940;2022-07-23T10:12:09;32.40;91.70
13610;DHT22;6876;50.788;4.940;2022-07-23T10:15:13;32.20;91.20
13610;DHT22;6876;50.788;4.940;2022-07-23T10:18:01;31.60;92.20
13610;DHT22;6876;50.788;4.940;2022-07-23T10:20:48;31.60;91.50
13610;DHT22;6876;50.788;4.940;2022-07-23T10:23:41;31.30;91.40
13610;DHT22;6876;50.788;4.940;2022-07-23T10:26:34;32.00;89.60
13610;DHT22;6876;50.788;4.940;2022-07-23T10:29:35;32.00;89.60
13610;DHT22;6876;50.788;4.940;2022-07-23T10:32:34;32.40;89.40
13610;DHT22;6876;50.788;4.940;2022-07-23T10:35:29;32.40;89.10
13610;DHT22;6876;50.788;4.940;2022-07-23T10:38:21;32.20;90.10
13610;DHT22;6876;50.788;4.940;2022-07-23T10:41:12;31.50;90.90
13610;DHT22;6876;50.788;4.940;2022-07-23T10:44:09;31.70;88.20
13610;DHT22;6876;50.788;4.940;2022-07-23T10:46:58;32.00;83.80
13610;DHT22;6876;50.788;4.940;2022-07-23T10:50:18;32.10;81.20
13610;DHT22;6876;50.788;4.940;2022-07-23T10:53:14;32.00;82.70
13610;DHT22;6876;50.788;4.940;2022-07-23T10:56:03;32.50;81.90
13610;DHT22;6876;50.788;4.940;2022-07-23T10:58:52;31.90;83.50
13610;DHT22;6876;50.788;4.940;2022-07-23T11:01:39;31.70;84.70
13610;DHT22;6876;50.788;4.940;2022-07-23T11:04:51;31.90;82.30
13610;DHT22;6876;50.788;4.940;2022-07-23T11:08:12;32.00;83.20
13610;DHT22;6876;50.788;4.940;2022-07-23T11:11:09;32.00;80.40
13610;DHT22;6876;50.788;4.940;2022-07-23T11:13:58;32.00;82.10
13610;DHT22;6876;50.788;4.940;2022-07-23T11:16:46;31.70;81.00
13610;DHT22;6876;50.788;4.940;2022-07-23T11:22:56;31.20;81.50
13610;DHT22;6876;50.788;4.940;2022-07-23T11:25:43;31.00;82.70
13610;DHT22;6876;50.788;4.940;2022-07-23T11:28:30;30.80;84.30
13610;DHT22;6876;50.788;4.940;2022-07-23T11:31:19;30.80;83.50
13610;DHT22;6876;50.788;4.940;2022-07-23T11:34:29;31.30;84.50
13610;DHT22;6876;50.788;4.940;2022-07-23T11:37:42;31.10;83.60
13610;DHT22;6876;50.788;4.940;2022-07-23T11:40:34;31.20;83.00
13610;DHT22;6876;50.788;4.940;2022-07-23T11:43:22;30.80;82.80
13610;DHT22;6876;50.788;4.940;2022-07-23T11:46:10;30.40;83.90
13610;DHT22;6876;50.788;4.940;2022-07-23T11:49:03;29.90;84.70
13610;DHT22;6876;50.788;4.940;2022-07-23T11:52:03;30.20;85.60
13610;DHT22;6876;50.788;4.940;2022-07-23T11:54:52;30.30;84.90
13610;DHT22;6876;50.788;4.940;2022-07-23T11:57:40;30.50;84.40
13610;DHT22;6876;50.788;4.940;2022-07-23T12:00:29;30.40;84.30
13610;DHT22;6876;50.788;4.940;2022-07-23T12:03:17;30.30;83.50
13610;DHT22;6876;50.788;4.940;2022-07-23T12:06:06;30.30;85.10
13610;DHT22;6876;50.788;4.940;2022-07-23T12:08:58;30.20;85.20
13610;DHT22;6876;50.788;4.940;2022-07-23T12:11:57;30.30;84.10
13610;DHT22;6876;50.788;4.940;2022-07-23T12:14:48;30.10;85.30
13610;DHT22;6876;50.788;4.940;2022-07-23T12:17:37;29.60;85.30
13610;DHT22;6876;50.788;4.940;2022-07-23T12:20:28;29.30;86.20
13610;DHT22;6876;50.788;4.940;2022-07-23T12:23:19;29.10;87.00
13610;DHT22;6876;50.788;4.940;2022-07-23T12:26:06;29.30;85.40
13610;DHT22;6876;50.788;4.940;2022-07-23T12:28:57;29.50;87.20
13610;DHT22;6876;50.788;4.940;2022-07-23T12:31:44;29.80;85.70
13610;DHT22;6876;50.788;4.940;2022-07-23T12:34:31;29.80;85.70
13610;DHT22;6876;50.788;4.940;2022-07-23T12:37:29;30.00;87.20
13610;DHT22;6876;50.788;4.940;2022-07-23T12:40:27;30.10;84.30
13610;DHT22;6876;50.788;4.940;2022-07-23T12:43:20;29.90;86.80
13610;DHT22;6876;50.788;4.940;2022-07-23T12:46:09;30.10;86.40
13610;DHT22;6876;50.788;4.940;2022-07-23T12:48:57;30.20;86.00
13610;DHT22;6876;50.788;4.940;2022-07-23T12:51:44;30.00;84.30
13610;DHT22;6876;50.788;4.940;2022-07-23T12:54:32;29.60;86.10
13610;DHT22;6876;50.788;4.940;2022-07-23T12:57:46;29.70;84.10
13610;DHT22;6876;50.788;4.940;2022-07-23T13:00:58;29.70;85.00
13610;DHT22;6876;50.788;4.940;2022-07-23T13:03:56;29.40;84.80
13610;DHT22;6876;50.788;4.940;2022-07-23T13:06:45;29.30;86.50
13610;DHT22;6876;50.788;4.940;2022-07-23T13:09:34;29.30;85.70
13610;DHT22;6876;50.788;4.940;2022-07-23T13:12:22;29.30;86.10
13610;DHT22;6876;50.788;4.940;2022-07-23T13:15:10;29.30;86.10
13610;DHT22;6876;50.788;4.940;2022-07-23T13:17:57;29.40;85.20
13610;DHT22;6876;50.788;4.940;2022-07-23T13:20:45;29.50;87.00
13610;DHT22;6876;50.788;4.940;2022-07-23T13:23:33;29.70;85.30
13610;DHT22;6876;50.788;4.940;2022-07-23T13:26:20;30.00;86.90
13610;DHT22;6876;50.788;4.940;2022-07-23T13:29:09;30.40;86.60
13610;DHT22;6876;50.788;4.940;2022-07-23T13:31:56;30.40;86.20
13610;DHT22;6876;50.788;4.940;2022-07-23T13:34:44;30.00;85.80
13610;DHT22;6876;50.788;4.940;2022-07-23T13:37:31;30.00;87.40
13610;DHT22;6876;50.788;4.940;2022-07-23T13:40:18;29.70;87.40
13610;DHT22;6876;50.788;4.940;2022-07-23T13:43:06;29.50;87.70
13610;DHT22;6876;50.788;4.940;2022-07-23T13:45:55;29.70;89.60
13610;DHT22;6876;50.788;4.940;2022-07-23T13:48:43;29.70;85.20
13610;DHT22;6876;50.788;4.940;2022-07-23T13:51:31;29.80;87.30
13610;DHT22;6876;50.788;4.940;2022-07-23T13:54:18;30.10;87.90
13610;DHT22;6876;50.788;4.940;2022-07-23T13:57:06;30.10;85.20
13610;DHT22;6876;50.788;4.940;2022-07-23T13:59:54;29.80;85.30
13610;DHT22;6876;50.788;4.940;2022-07-23T14:02:43;29.80;86.30
13610;DHT22;6876;50.788;4.940;2022-07-23T14:05:30;29.70;88.10
13610;DHT22;6876;50.788;4.940;2022-07-23T14:08:18;29.80;86.40
13610;DHT22;6876;50.788;4.940;2022-07-23T14:11:05;29.70;87.80
13610;DHT22;6876;50.788;4.940;2022-07-23T14:13:53;29.60;86.70
13610;DHT22;6876;50.788;4.940;2022-07-23T14:16:40;29.90;87.10
13610;DHT22;6876;50.788;4.940;2022-07-23T14:19:29;29.80;86.60
13610;DHT22;6876;50.788;4.940;2022-07-23T14:22:16;30.00;87.30
13610;DHT22;6876;50.788;4.940;2022-07-23T14:25:06;30.00;87.50
13610;DHT22;6876;50.788;4.940;2022-07-23T14:27:55;30.00;89.10
13610;DHT22;6876;50.788;4.940;2022-07-23T14:30:42;30.20;87.80
13610;DHT22;6876;50.788;4.940;2022-07-23T14:33:29;30.40;86.60
13610;DHT22;6876;50.788;4.940;2022-07-23T14:36:18;30.30;87.20
13610;DHT22;6876;50.788;4.940;2022-07-23T14:39:06;30.30;87.80
13610;DHT22;6876;50.788;4.940;2022-07-23T14:41:54;30.10;86.80
13610;DHT22;6876;50.788;4.940;2022-07-23T14:44:41;29.60;86.80
13610;DHT22;6876;50.788;4.940;2022-07-23T14:47:29;29.40;86.80
13610;DHT22;6876;50.788;4.940;2022-07-23T14:50:16;29.50;87.70
13610;DHT22;6876;50.788;4.940;2022-07-23T14:53:05;29.60;88.90
13610;DHT22;6876;50.788;4.940;2022-07-23T14:55:52;29.40;88.70
13610;DHT22;6876;50.788;4.940;2022-07-23T14:58:39;29.60;88.70
13610;DHT22;6876;50.788;4.940;2022-07-23T15:01:26;29.60;89.90
13610;DHT22;6876;50.788;4.940;2022-07-23T15:04:14;29.80;88.80
13610;DHT22;6876;50.788;4.940;2022-07-23T15:07:02;30.00;88.70
13610;DHT22;6876;50.788;4.940;2022-07-23T15:09:50;30.00;87.60
13610;DHT22;6876;50.788;4.940;2022-07-23T15:12:37;29.80;87.50
13610;DHT22;6876;50.788;4.940;2022-07-23T15:15:25;29.80;88.50
13610;DHT22;6876;50.788;4.940;2022-07-23T15:18:12;29.70;89.20
13610;DHT22;6876;50.788;4.940;2022-07-23T15:20:59;29.70;89.50
13610;DHT22;6876;50.788;4.940;2022-07-23T15:23:47;29.70;89.30
13610;DHT22;6876;50.788;4.940;2022-07-23T15:26:35;29.50;89.30
13610;DHT22;6876;50.788;4.940;2022-07-23T15:29:23;29.60;89.80
13610;DHT22;6876;50.788;4.940;2022-07-23T15:32:10;29.50;89.80
13610;DHT22;6876;50.788;4.940;2022-07-23T15:34:58;29.50;89.00
13610;DHT22;6876;50.788;4.940;2022-07-23T15:37:45;29.30;89.90
13610;DHT22;6876;50.788;4.940;2022-07-23T15:40:32;29.30;90.10
13610;DHT22;6876;50.788;4.940;2022-07-23T15:43:21;29.40;88.60
13610;DHT22;6876;50.788;4.940;2022-07-23T15:46:09;29.40;90.00
13610;DHT22;6876;50.788;4.940;2022-07-23T15:48:56;29.50;89.80
13610;DHT22;6876;50.788;4.940;2022-07-23T15:51:44;29.40;89.90
13610;DHT22;6876;50.788;4.940;2022-07-23T15:54:34;29.40;90.90
13610;DHT22;6876;50.788;4.940;2022-07-23T15:57:22;29.20;89.90
13610;DHT22;6876;50.788;4.940;2022-07-23T16:00:11;29.30;90.50
13610;DHT22;6876;50.788;4.940;2022-07-23T16:02:58;29.40;89.70
13610;DHT22;6876;50.788;4.940;2022-07-23T16:05:46;29.50;90.00
13610;DHT22;6876;50.788;4.940;2022-07-23T16:08:33;29.40;89.40
13610;DHT22;6876;50.788;4.940;2022-07-23T16:11:21;29.30;90.10
13610;DHT22;6876;50.788;4.940;2022-07-23T16:14:08;29.20;90.90
13610;DHT22;6876;50.788;4.940;2022-07-23T16:16:57;29.50;90.50
13610;DHT22;6876;50.788;4.940;2022-07-23T16:19:44;29.40;89.40
13610;DHT22;6876;50.788;4.940;2022-07-23T16:22:32;29.20;89.80
13610;DHT22;6876;50.788;4.940;2022-07-23T16:25:20;29.20;90.90
13610;DHT22;6876;50.788;4.940;2022-07-23T16:28:08;29.00;90.00
13610;DHT22;6876;50.788;4.940;2022-07-23T16:30:55;28.90;90.50
13610;DHT22;6876;50.788;4.940;2022-07-23T16:33:45;28.80;91.30
13610;DHT22;6876;50.788;4.940;2022-07-23T16:36:33;28.80;91.50
13610;DHT22;6876;50.788;4.940;2022-07-23T16:39:20;28.80;90.60
13610;DHT22;6876;50.788;4.940;2022-07-23T16:42:08;28.90;91.00
13610;DHT22;6876;50.788;4.940;2022-07-23T16:44:55;29.00;90.60
13610;DHT22;6876;50.788;4.940;2022-07-23T16:47:43;29.00;90.90
13610;DHT22;6876;50.788;4.940;2022-07-23T16:50:32;28.90;90.10
13610;DHT22;6876;50.788;4.940;2022-07-23T16:53:19;28.70;90.60
13610;DHT22;6876;50.788;4.940;2022-07-23T16:56:07;28.50;91.10
13610;DHT22;6876;50.788;4.940;2022-07-23T16:58:57;28.60;91.20
13610;DHT22;6876;50.788;4.940;2022-07-23T17:01:45;28.50;91.20
13610;DHT22;6876;50.788;4.940;2022-07-23T17:04:32;28.50;91.70
13610;DHT22;6876;50.788;4.940;2022-07-23T17:07:21;28.40;91.50
13610;DHT22;6876;50.788;4.940;2022-07-23T17:10:09;28.30;91.60
13610;DHT22;6876;50.788;4.940;2022-07-23T17:12:56;28.00;91.50
13610;DHT22;6876;50.788;4.940;2022-07-23T17:15:44;28.00;92.00
13610;DHT22;6876;50.788;4.940;2022-07-23T17:18:31;28.00;92.70
13610;DHT22;6876;50.788;4.940;2022-07-23T17:21:19;28.10;92.50
13610;DHT22;6876;50.788;4.940;2022-07-23T17:24:07;28.00;91.80
13610;DHT22;6876;50.788;4.940;2022-07-23T17:26:55;28.00;91.40
13610;DHT22;6876;50.788;4.940;2022-07-23T17:29:42;27.90;91.40
13610;DHT22;6876;50.788;4.940;2022-07-23T17:32:29;27.90;92.30
13610;DHT22;6876;50.788;4.940;2022-07-23T17:35:16;27.90;93.00
13610;DHT22;6876;50.788;4.940;2022-07-23T17:38:04;27.90;93.70
13610;DHT22;6876;50.788;4.940;2022-07-23T17:40:53;27.80;93.40
13610;DHT22;6876;50.788;4.940;2022-07-23T17:43:40;27.90;93.60
13610;DHT22;6876;50.788;4.940;2022-07-23T17:46:27;27.90;93.10
13610;DHT22;6876;50.788;4.940;2022-07-23T17:49:15;27.80;93.40
13610;DHT22;6876;50.788;4.940;2022-07-23T17:52:04;27.80;93.20
13610;DHT22;6876;50.788;4.940;2022-07-23T17:54:52;27.70;92.90
13610;DHT22;6876;50.788;4.940;2022-07-23T17:57:40;27.60;93.50
13610;DHT22;6876;50.788;4.940;2022-07-23T18:00:29;27.50;93.50
13610;DHT22;6876;50.788;4.940;2022-07-23T18:03:17;27.50;93.90
13610;DHT22;6876;50.788;4.940;2022-07-23T18:06:04;27.40;94.10